sensor_id;sensor_type;location;lat;lon;timestamp;P1;durP1;ratioP1;P2;durP2;ratioP2
26718;SDS011;14326;50.794;6.060;2022-11-14T00:01:44;22.92;;;8.65;;
26718;SDS011;14326;50.794;6.060;2022-11-14T00:04:18;25.60;;;10.20;;
26718;SDS011;14326;50.794;6.060;2022-11-14T00:06:56;24.80;;;9.18;;
26718;SDS011;14326;50.794;6.060;2022-11-14T00:09:26;23.30;;;8.38;;
26718;SDS011;14326;50.794;6.060;2022-11-14T00:11:56;21.00;;;7.55;;
26718;SDS011;14326;50.794;6.060;2022-11-14T00:14:44;19.15;;;7.45;;
26718;SDS011;14326;50.794;6.060;2022-11-14T00:17:21;18.77;;;7.18;;
26718;SDS011;14326;50.794;6.060;2022-11-14T00:19:52;21.33;;;7.15;;
26718;SDS011;14326;50.794;6.060;2022-11-14T00:22:26;19.40;;;7.13;;
26718;SDS011;14326;50.794;6.060;2022-11-14T00:25:17;20.92;;;7.72;;
26718;SDS011;14326;50.794;6.060;2022-11-14T00:27:59;17.77;;;7.35;;
26718;SDS011;14326;50.794;6.060;2022-11-14T00:33:04;19.65;;;6.85;;
26718;SDS011;14326;50.794;6.060;2022-11-14T00:35:55;20.88;;;7.57;;
26718;SDS011;14326;50.794;6.060;2022-11-14T00:38:30;18.70;;;6.78;;
26718;SDS011;14326;50.794;6.060;2022-11-14T00:41:06;23.00;;;7.78;;
26718;SDS011;14326;50.794;6.060;2022-11-14T00:43:39;19.27;;;6.20;;
26718;SDS011;14326;50.794;6.060;2022-11-14T00:46:06;19.60;;;6.78;;
26718;SDS011;14326;50.794;6.060;2022-11-14T00:48:36;14.75;;;5.80;;
26718;SDS011;14326;50.794;6.060;2022-11-14T00:51:08;19.05;;;7.18;;
26718;SDS011;14326;50.794;6.060;2022-11-14T00:53:36;17.77;;;6.43;;
26718;SDS011;14326;50.794;6.060;2022-11-14T00:56:08;19.02;;;6.72;;
26718;SDS011;14326;50.794;6.060;2022-11-14T00:58:45;19.63;;;6.13;;
26718;SDS011;14326;50.794;6.060;2022-11-14T01:01:19;19.13;;;6.70;;
26718;SDS011;14326;50.794;6.060;2022-11-14T01:03:51;14.90;;;5.00;;
26718;SDS011;14326;50.794;6.060;2022-11-14T01:06:41;17.88;;;6.60;;
26718;SDS011;14326;50.794;6.060;2022-11-14T01:09:18;18.23;;;5.68;;
26718;SDS011;14326;50.794;6.060;2022-11-14T01:11:46;19.05;;;6.30;;
26718;SDS011;14326;50.794;6.060;2022-11-14T01:14:26;19.75;;;6.70;;
26718;SDS011;14326;50.794;6.060;2022-11-14T01:16:58;20.45;;;7.65;;
26718;SDS011;14326;50.794;6.060;2022-11-14T01:19:34;18.33;;;6.32;;
26718;SDS011;14326;50.794;6.060;2022-11-14T01:22:14;20.08;;;7.38;;
26718;SDS011;14326;50.794;6.060;2022-11-14T01:24:51;19.73;;;6.72;;
26718;SDS011;14326;50.794;6.060;2022-11-14T01:27:22;19.60;;;6.63;;
26718;SDS011;14326;50.794;6.060;2022-11-14T01:29:56;19.20;;;6.90;;
26718;SDS011;14326;50.794;6.060;2022-11-14T01:32:39;17.45;;;6.60;;
26718;SDS011;14326;50.794;6.060;2022-11-14T01:37:58;18.17;;;6.38;;
26718;SDS011;14326;50.794;6.060;2022-11-14T01:40:29;16.63;;;5.50;;
26718;SDS011;14326;50.794;6.060;2022-11-14T01:43:15;17.70;;;5.78;;
26718;SDS011;14326;50.794;6.060;2022-11-14T01:45:53;17.20;;;5.93;;
26718;SDS011;14326;50.794;6.060;2022-11-14T01:48:34;18.45;;;6.50;;
26718;SDS011;14326;50.794;6.060;2022-11-14T01:51:15;19.40;;;6.25;;
26718;SDS011;14326;50.794;6.060;2022-11-14T01:53:57;15.53;;;5.60;;
26718;SDS011;14326;50.794;6.060;2022-11-14T01:56:37;18.77;;;6.23;;
26718;SDS011;14326;50.794;6.060;2022-11-14T01:59:12;15.05;;;5.47;;
26718;SDS011;14326;50.794;6.060;2022-11-14T02:01:53;18.05;;;5.95;;
26718;SDS011;14326;50.794;6.060;2022-11-14T02:04:27;16.52;;;5.60;;
26718;SDS011;14326;50.794;6.060;2022-11-14T02:06:59;16.88;;;5.32;;
26718;SDS011;14326;50.794;6.060;2022-11-14T02:09:42;17.27;;;5.60;;
26718;SDS011;14326;50.794;6.060;2022-11-14T02:12:12;17.73;;;5.65;;
26718;SDS011;14326;50.794;6.060;2022-11-14T02:14:44;17.40;;;5.85;;
26718;SDS011;14326;50.794;6.060;2022-11-14T02:17:21;18.75;;;6.15;;
26718;SDS011;14326;50.794;6.060;2022-11-14T02:19:55;15.70;;;5.50;;
26718;SDS011;14326;50.794;6.060;2022-11-14T02:22:32;16.05;;;5.43;;
26718;SDS011;14326;50.794;6.060;2022-11-14T02:25:12;14.43;;;4.32;;
26718;SDS011;14326;50.794;6.060;2022-11-14T02:27:54;17.10;;;5.68;;
26718;SDS011;14326;50.794;6.060;2022-11-14T02:30:35;18.50;;;5.45;;
26718;SDS011;14326;50.794;6.060;2022-11-14T02:33:21;21.42;;;6.35;;
26718;SDS011;14326;50.794;6.060;2022-11-14T02:35:52;15.98;;;5.22;;
26718;SDS011;14326;50.794;6.060;2022-11-14T02:38:38;20.05;;;5.60;;
26718;SDS011;14326;50.794;6.060;2022-11-14T02:41:09;17.20;;;6.25;;
26718;SDS011;14326;50.794;6.060;2022-11-14T02:43:42;20.08;;;5.88;;
26718;SDS011;14326;50.794;6.060;2022-11-14T02:46:30;17.25;;;6.00;;
26718;SDS011;14326;50.794;6.060;2022-11-14T02:49:05;16.55;;;4.80;;
26718;SDS011;14326;50.794;6.060;2022-11-14T02:51:51;16.80;;;5.32;;
26718;SDS011;14326;50.794;6.060;2022-11-14T02:54:25;15.10;;;5.00;;
26718;SDS011;14326;50.794;6.060;2022-11-14T02:56:59;16.83;;;5.30;;
26718;SDS011;14326;50.794;6.060;2022-11-14T02:59:31;17.70;;;6.10;;
26718;SDS011;14326;50.794;6.060;2022-11-14T03:02:09;15.85;;;5.00;;
26718;SDS011;14326;50.794;6.060;2022-11-14T03:04:41;16.20;;;5.50;;
26718;SDS011;14326;50.794;6.060;2022-11-14T03:07:27;19.85;;;6.05;;
26718;SDS011;14326;50.794;6.060;2022-11-14T03:10:11;16.42;;;5.03;;
26718;SDS011;14326;50.794;6.060;2022-11-14T03:12:44;17.27;;;5.30;;
26718;SDS011;14326;50.794;6.060;2022-11-14T03:15:20;15.30;;;5.28;;
26718;SDS011;14326;50.794;6.060;2022-11-14T03:17:58;16.38;;;5.07;;
26718;SDS011;14326;50.794;6.060;2022-11-14T03:20:31;15.15;;;5.18;;
26718;SDS011;14326;50.794;6.060;2022-11-14T03:23:17;17.30;;;5.25;;
26718;SDS011;14326;50.794;6.060;2022-11-14T03:25:50;16.70;;;5.80;;
26718;SDS011;14326;50.794;6.060;2022-11-14T03:28:30;18.58;;;4.88;;
26718;SDS011;14326;50.794;6.060;2022-11-14T03:31:05;14.13;;;4.65;;
26718;SDS011;14326;50.794;6.060;2022-11-14T03:33:43;14.35;;;4.50;;
26718;SDS011;14326;50.794;6.060;2022-11-14T03:36:13;16.33;;;5.10;;
26718;SDS011;14326;50.794;6.060;2022-11-14T03:38:55;16.98;;;4.82;;
26718;SDS011;14326;50.794;6.060;2022-11-14T03:41:37;16.33;;;4.57;;
26718;SDS011;14326;50.794;6.060;2022-11-14T03:44:09;12.15;;;3.92;;
26718;SDS011;14326;50.794;6.060;2022-11-14T03:46:40;13.55;;;4.43;;
26718;SDS011;14326;50.794;6.060;2022-11-14T03:49:09;15.55;;;5.00;;
26718;SDS011;14326;50.794;6.060;2022-11-14T03:51:52;16.80;;;5.05;;
26718;SDS011;14326;50.794;6.060;2022-11-14T03:54:28;17.02;;;5.30;;
26718;SDS011;14326;50.794;6.060;2022-11-14T03:56:59;16.17;;;4.55;;
26718;SDS011;14326;50.794;6.060;2022-11-14T03:59:27;15.95;;;4.80;;
26718;SDS011;14326;50.794;6.060;2022-11-14T04:01:59;13.75;;;4.20;;
26718;SDS011;14326;50.794;6.060;2022-11-14T04:04:27;16.35;;;4.70;;
26718;SDS011;14326;50.794;6.060;2022-11-14T04:06:56;14.95;;;4.32;;
26718;SDS011;14326;50.794;6.060;2022-11-14T04:09:26;13.55;;;4.32;;
26718;SDS011;14326;50.794;6.060;2022-11-14T04:12:06;14.10;;;4.20;;
26718;SDS011;14326;50.794;6.060;2022-11-14T04:14:44;16.10;;;4.65;;
26718;SDS011;14326;50.794;6.060;2022-11-14T04:17:20;17.38;;;4.50;;
26718;SDS011;14326;50.794;6.060;2022-11-14T04:20:01;15.13;;;4.82;;
26718;SDS011;14326;50.794;6.060;2022-11-14T04:22:31;13.95;;;4.15;;
26718;SDS011;14326;50.794;6.060;2022-11-14T04:25:07;14.65;;;4.15;;
26718;SDS011;14326;50.794;6.060;2022-11-14T04:27:42;13.50;;;4.10;;
26718;SDS011;14326;50.794;6.060;2022-11-14T04:30:17;13.88;;;4.70;;
26718;SDS011;14326;50.794;6.060;2022-11-14T04:32:44;13.38;;;4.40;;
26718;SDS011;14326;50.794;6.060;2022-11-14T04:35:12;12.75;;;4.13;;
26718;SDS011;14326;50.794;6.060;2022-11-14T04:37:39;12.15;;;4.20;;
26718;SDS011;14326;50.794;6.060;2022-11-14T04:40:07;13.90;;;5.00;;
26718;SDS011;14326;50.794;6.060;2022-11-14T04:42:35;12.25;;;3.97;;
26718;SDS011;14326;50.794;6.060;2022-11-14T04:45:02;14.57;;;4.53;;
26718;SDS011;14326;50.794;6.060;2022-11-14T04:47:29;14.95;;;3.72;;
26718;SDS011;14326;50.794;6.060;2022-11-14T04:49:55;11.73;;;4.18;;
26718;SDS011;14326;50.794;6.060;2022-11-14T04:52:22;14.63;;;4.50;;
26718;SDS011;14326;50.794;6.060;2022-11-14T04:54:49;13.13;;;3.92;;
26718;SDS011;14326;50.794;6.060;2022-11-14T04:57:16;13.63;;;4.28;;
26718;SDS011;14326;50.794;6.060;2022-11-14T04:59:43;13.93;;;4.40;;
26718;SDS011;14326;50.794;6.060;2022-11-14T05:02:10;16.77;;;4.40;;
26718;SDS011;14326;50.794;6.060;2022-11-14T05:04:36;14.77;;;4.20;;
26718;SDS011;14326;50.794;6.060;2022-11-14T05:07:03;14.18;;;4.35;;
26718;SDS011;14326;50.794;6.060;2022-11-14T05:09:30;16.15;;;4.57;;
26718;SDS011;14326;50.794;6.060;2022-11-14T05:11:56;13.52;;;4.60;;
26718;SDS011;14326;50.794;6.060;2022-11-14T05:14:24;15.05;;;4.50;;
26718;SDS011;14326;50.794;6.060;2022-11-14T05:16:51;12.25;;;4.05;;
26718;SDS011;14326;50.794;6.060;2022-11-14T05:19:17;14.18;;;4.07;;
26718;SDS011;14326;50.794;6.060;2022-11-14T05:21:44;17.05;;;4.78;;
26718;SDS011;14326;50.794;6.060;2022-11-14T05:24:11;12.95;;;4.32;;
26718;SDS011;14326;50.794;6.060;2022-11-14T05:26:37;15.02;;;4.32;;
26718;SDS011;14326;50.794;6.060;2022-11-14T05:29:04;11.10;;;4.40;;
26718;SDS011;14326;50.794;6.060;2022-11-14T05:31:32;13.88;;;4.63;;
26718;SDS011;14326;50.794;6.060;2022-11-14T05:33:59;12.23;;;4.53;;
26718;SDS011;14326;50.794;6.060;2022-11-14T05:36:26;13.90;;;4.68;;
26718;SDS011;14326;50.794;6.060;2022-11-14T05:38:52;14.63;;;4.88;;
26718;SDS011;14326;50.794;6.060;2022-11-14T05:41:19;14.30;;;4.40;;
26718;SDS011;14326;50.794;6.060;2022-11-14T05:43:46;13.55;;;5.53;;
26718;SDS011;14326;50.794;6.060;2022-11-14T05:46:13;13.15;;;4.28;;
26718;SDS011;14326;50.794;6.060;2022-11-14T05:48:42;15.18;;;5.47;;
26718;SDS011;14326;50.794;6.060;2022-11-14T05:51:10;18.20;;;5.43;;
26718;SDS011;14326;50.794;6.060;2022-11-14T05:53:38;15.25;;;4.47;;
26718;SDS011;14326;50.794;6.060;2022-11-14T05:56:06;16.63;;;4.88;;
26718;SDS011;14326;50.794;6.060;2022-11-14T05:58:35;14.20;;;4.93;;
26718;SDS011;14326;50.794;6.060;2022-11-14T06:01:03;13.25;;;4.40;;
26718;SDS011;14326;50.794;6.060;2022-11-14T06:03:31;16.02;;;4.88;;
26718;SDS011;14326;50.794;6.060;2022-11-14T06:06:00;17.38;;;4.75;;
26718;SDS011;14326;50.794;6.060;2022-11-14T06:08:27;16.52;;;4.80;;
26718;SDS011;14326;50.794;6.060;2022-11-14T06:10:54;20.30;;;5.40;;
26718;SDS011;14326;50.794;6.060;2022-11-14T06:13:21;17.95;;;5.40;;
26718;SDS011;14326;50.794;6.060;2022-11-14T06:15:48;15.15;;;4.80;;
26718;SDS011;14326;50.794;6.060;2022-11-14T06:18:15;15.98;;;4.70;;
26718;SDS011;14326;50.794;6.060;2022-11-14T06:20:42;15.40;;;5.38;;
26718;SDS011;14326;50.794;6.060;2022-11-14T06:23:10;16.98;;;5.55;;
26718;SDS011;14326;50.794;6.060;2022-11-14T06:25:36;13.68;;;4.50;;
26718;SDS011;14326;50.794;6.060;2022-11-14T06:28:03;16.65;;;5.30;;
26718;SDS011;14326;50.794;6.060;2022-11-14T06:30:30;17.27;;;4.82;;
26718;SDS011;14326;50.794;6.060;2022-11-14T06:32:56;16.52;;;4.78;;
26718;SDS011;14326;50.794;6.060;2022-11-14T06:35:23;14.73;;;4.50;;
26718;SDS011;14326;50.794;6.060;2022-11-14T06:37:50;14.50;;;4.43;;
26718;SDS011;14326;50.794;6.060;2022-11-14T06:40:18;15.13;;;4.38;;
26718;SDS011;14326;50.794;6.060;2022-11-14T06:42:45;13.88;;;5.18;;
26718;SDS011;14326;50.794;6.060;2022-11-14T06:45:11;18.88;;;4.90;;
26718;SDS011;14326;50.794;6.060;2022-11-14T06:47:38;14.70;;;4.90;;
26718;SDS011;14326;50.794;6.060;2022-11-14T06:50:05;14.40;;;4.53;;
26718;SDS011;14326;50.794;6.060;2022-11-14T06:52:33;17.77;;;5.35;;
26718;SDS011;14326;50.794;6.060;2022-11-14T06:54:59;17.00;;;4.60;;
26718;SDS011;14326;50.794;6.060;2022-11-14T06:57:27;15.80;;;4.78;;
26718;SDS011;14326;50.794;6.060;2022-11-14T06:59:54;17.95;;;5.65;;
26718;SDS011;14326;50.794;6.060;2022-11-14T07:02:22;17.83;;;4.65;;
26718;SDS011;14326;50.794;6.060;2022-11-14T07:04:48;14.27;;;4.70;;
26718;SDS011;14326;50.794;6.060;2022-11-14T07:07:15;14.25;;;5.00;;
26718;SDS011;14326;50.794;6.060;2022-11-14T07:09:41;15.13;;;4.72;;
26718;SDS011;14326;50.794;6.060;2022-11-14T07:12:08;14.80;;;5.10;;
26718;SDS011;14326;50.794;6.060;2022-11-14T07:14:36;16.92;;;5.45;;
26718;SDS011;14326;50.794;6.060;2022-11-14T07:17:03;18.33;;;5.22;;
26718;SDS011;14326;50.794;6.060;2022-11-14T07:19:29;19.35;;;5.70;;
26718;SDS011;14326;50.794;6.060;2022-11-14T07:21:56;19.63;;;5.40;;
26718;SDS011;14326;50.794;6.060;2022-11-14T07:24:22;15.60;;;5.18;;
26718;SDS011;14326;50.794;6.060;2022-11-14T07:26:49;15.40;;;4.85;;
26718;SDS011;14326;50.794;6.060;2022-11-14T07:29:16;15.70;;;5.03;;
26718;SDS011;14326;50.794;6.060;2022-11-14T07:31:43;19.55;;;5.70;;
26718;SDS011;14326;50.794;6.060;2022-11-14T07:34:10;15.48;;;5.15;;
26718;SDS011;14326;50.794;6.060;2022-11-14T07:36:37;15.32;;;5.18;;
26718;SDS011;14326;50.794;6.060;2022-11-14T07:39:04;13.93;;;4.90;;
26718;SDS011;14326;50.794;6.060;2022-11-14T07:41:30;17.55;;;4.82;;
26718;SDS011;14326;50.794;6.060;2022-11-14T07:43:57;15.13;;;4.53;;
26718;SDS011;14326;50.794;6.060;2022-11-14T07:46:23;15.85;;;5.38;;
26718;SDS011;14326;50.794;6.060;2022-11-14T07:48:51;16.67;;;5.57;;
26718;SDS011;14326;50.794;6.060;2022-11-14T07:51:18;14.32;;;5.20;;
26718;SDS011;14326;50.794;6.060;2022-11-14T07:53:45;20.67;;;6.18;;
26718;SDS011;14326;50.794;6.060;2022-11-14T07:56:12;16.73;;;5.88;;
26718;SDS011;14326;50.794;6.060;2022-11-14T07:58:41;15.52;;;5.60;;
26718;SDS011;14326;50.794;6.060;2022-11-14T08:01:08;14.75;;;6.15;;
26718;SDS011;14326;50.794;6.060;2022-11-14T08:03:36;22.10;;;6.07;;
26718;SDS011;14326;50.794;6.060;2022-11-14T08:06:05;20.10;;;6.32;;
26718;SDS011;14326;50.794;6.060;2022-11-14T08:08:33;17.80;;;6.57;;
26718;SDS011;14326;50.794;6.060;2022-11-14T08:11:00;20.27;;;6.55;;
26718;SDS011;14326;50.794;6.060;2022-11-14T08:13:27;23.42;;;6.70;;
26718;SDS011;14326;50.794;6.060;2022-11-14T08:15:55;18.25;;;6.15;;
26718;SDS011;14326;50.794;6.060;2022-11-14T08:18:21;16.73;;;6.15;;
26718;SDS011;14326;50.794;6.060;2022-11-14T08:20:48;20.70;;;6.13;;
26718;SDS011;14326;50.794;6.060;2022-11-14T08:23:16;19.33;;;6.07;;
26718;SDS011;14326;50.794;6.060;2022-11-14T08:25:43;20.83;;;6.95;;
26718;SDS011;14326;50.794;6.060;2022-11-14T08:28:09;17.90;;;6.97;;
26718;SDS011;14326;50.794;6.060;2022-11-14T08:30:36;17.05;;;5.93;;
26718;SDS011;14326;50.794;6.060;2022-11-14T08:33:03;20.08;;;6.97;;
26718;SDS011;14326;50.794;6.060;2022-11-14T08:35:31;20.77;;;6.95;;
26718;SDS011;14326;50.794;6.060;2022-11-14T08:37:59;19.27;;;7.65;;
26718;SDS011;14326;50.794;6.060;2022-11-14T08:40:27;18.80;;;6.60;;
26718;SDS011;14326;50.794;6.060;2022-11-14T08:42:57;20.65;;;7.07;;
26718;SDS011;14326;50.794;6.060;2022-11-14T08:47:51;23.27;;;8.07;;
26718;SDS011;14326;50.794;6.060;2022-11-14T08:50:18;22.67;;;8.63;;
26718;SDS011;14326;50.794;6.060;2022-11-14T08:52:47;23.33;;;8.90;;
26718;SDS011;14326;50.794;6.060;2022-11-14T08:57:42;21.80;;;8.82;;
26718;SDS011;14326;50.794;6.060;2022-11-14T09:00:09;24.67;;;9.68;;
26718;SDS011;14326;50.794;6.060;2022-11-14T09:02:37;29.23;;;10.57;;
26718;SDS011;14326;50.794;6.060;2022-11-14T09:05:03;23.83;;;9.95;;
26718;SDS011;14326;50.794;6.060;2022-11-14T09:07:31;23.95;;;9.50;;
26718;SDS011;14326;50.794;6.060;2022-11-14T09:09:57;24.73;;;10.05;;
26718;SDS011;14326;50.794;6.060;2022-11-14T09:12:24;25.88;;;11.02;;
26718;SDS011;14326;50.794;6.060;2022-11-14T09:14:52;31.63;;;11.88;;
26718;SDS011;14326;50.794;6.060;2022-11-14T09:17:18;30.90;;;11.93;;
26718;SDS011;14326;50.794;6.060;2022-11-14T09:19:45;25.75;;;11.20;;
26718;SDS011;14326;50.794;6.060;2022-11-14T09:22:11;25.25;;;11.73;;
26718;SDS011;14326;50.794;6.060;2022-11-14T09:24:38;25.35;;;11.38;;
26718;SDS011;14326;50.794;6.060;2022-11-14T09:27:05;25.35;;;10.50;;
26718;SDS011;14326;50.794;6.060;2022-11-14T09:29:31;25.55;;;10.52;;
26718;SDS011;14326;50.794;6.060;2022-11-14T09:32:00;29.65;;;11.25;;
26718;SDS011;14326;50.794;6.060;2022-11-14T09:34:26;25.38;;;11.25;;
26718;SDS011;14326;50.794;6.060;2022-11-14T09:36:53;24.70;;;11.55;;
26718;SDS011;14326;50.794;6.060;2022-11-14T09:39:19;26.88;;;11.93;;
26718;SDS011;14326;50.794;6.060;2022-11-14T09:41:50;28.00;;;11.88;;
26718;SDS011;14326;50.794;6.060;2022-11-14T09:44:36;29.23;;;12.18;;
26718;SDS011;14326;50.794;6.060;2022-11-14T09:47:15;31.10;;;12.30;;
26718;SDS011;14326;50.794;6.060;2022-11-14T09:49:48;29.45;;;12.52;;
26718;SDS011;14326;50.794;6.060;2022-11-14T09:52:21;27.40;;;11.82;;
26718;SDS011;14326;50.794;6.060;2022-11-14T09:54:56;29.25;;;11.02;;
26718;SDS011;14326;50.794;6.060;2022-11-14T09:57:25;20.50;;;9.77;;
26718;SDS011;14326;50.794;6.060;2022-11-14T09:59:52;24.58;;;11.65;;
26718;SDS011;14326;50.794;6.060;2022-11-14T10:02:26;27.90;;;12.00;;
26718;SDS011;14326;50.794;6.060;2022-11-14T10:05:08;28.05;;;12.32;;
26718;SDS011;14326;50.794;6.060;2022-11-14T10:07:52;28.08;;;12.10;;
26718;SDS011;14326;50.794;6.060;2022-11-14T10:10:48;27.42;;;12.50;;
26718;SDS011;14326;50.794;6.060;2022-11-14T10:16:13;25.98;;;11.93;;
26718;SDS011;14326;50.794;6.060;2022-11-14T10:18:53;32.45;;;14.88;;
26718;SDS011;14326;50.794;6.060;2022-11-14T10:21:31;29.88;;;12.98;;
26718;SDS011;14326;50.794;6.060;2022-11-14T10:24:09;30.40;;;14.52;;
26718;SDS011;14326;50.794;6.060;2022-11-14T10:27:01;28.45;;;12.43;;
26718;SDS011;14326;50.794;6.060;2022-11-14T10:29:33;31.33;;;13.70;;
26718;SDS011;14326;50.794;6.060;2022-11-14T10:32:15;29.17;;;12.57;;
26718;SDS011;14326;50.794;6.060;2022-11-14T10:34:55;26.25;;;11.65;;
26718;SDS011;14326;50.794;6.060;2022-11-14T10:37:28;28.20;;;11.50;;
26718;SDS011;14326;50.794;6.060;2022-11-14T10:40:00;25.27;;;12.48;;
26718;SDS011;14326;50.794;6.060;2022-11-14T10:42:39;28.85;;;12.23;;
26718;SDS011;14326;50.794;6.060;2022-11-14T10:45:10;19.17;;;8.30;;
26718;SDS011;14326;50.794;6.060;2022-11-14T10:47:45;25.60;;;11.43;;
26718;SDS011;14326;50.794;6.060;2022-11-14T10:50:19;25.75;;;11.55;;
26718;SDS011;14326;50.794;6.060;2022-11-14T10:52:48;28.50;;;11.93;;
26718;SDS011;14326;50.794;6.060;2022-11-14T10:55:22;29.25;;;12.38;;
26718;SDS011;14326;50.794;6.060;2022-11-14T10:57:49;25.10;;;11.80;;
26718;SDS011;14326;50.794;6.060;2022-11-14T11:00:16;26.67;;;12.10;;
26718;SDS011;14326;50.794;6.060;2022-11-14T11:02:48;27.10;;;12.20;;
26718;SDS011;14326;50.794;6.060;2022-11-14T11:05:19;26.27;;;11.45;;
26718;SDS011;14326;50.794;6.060;2022-11-14T11:07:47;25.08;;;10.20;;
26718;SDS011;14326;50.794;6.060;2022-11-14T11:10:32;25.50;;;10.23;;
26718;SDS011;14326;50.794;6.060;2022-11-14T11:13:29;26.40;;;10.00;;
26718;SDS011;14326;50.794;6.060;2022-11-14T11:15:58;25.83;;;9.90;;
26718;SDS011;14326;50.794;6.060;2022-11-14T11:18:27;23.50;;;8.90;;
26718;SDS011;14326;50.794;6.060;2022-11-14T11:21:03;22.30;;;8.48;;
26718;SDS011;14326;50.794;6.060;2022-11-14T11:23:32;19.85;;;6.32;;
26718;SDS011;14326;50.794;6.060;2022-11-14T11:26:03;18.15;;;5.75;;
26718;SDS011;14326;50.794;6.060;2022-11-14T11:28:33;14.98;;;5.32;;
26718;SDS011;14326;50.794;6.060;2022-11-14T11:31:03;13.27;;;4.25;;
26718;SDS011;14326;50.794;6.060;2022-11-14T11:33:31;11.60;;;3.67;;
26718;SDS011;14326;50.794;6.060;2022-11-14T11:35:59;11.93;;;3.78;;
26718;SDS011;14326;50.794;6.060;2022-11-14T11:38:30;11.52;;;3.65;;
26718;SDS011;14326;50.794;6.060;2022-11-14T11:41:15;10.52;;;3.15;;
26718;SDS011;14326;50.794;6.060;2022-11-14T11:43:51;14.55;;;3.72;;
26718;SDS011;14326;50.794;6.060;2022-11-14T11:46:23;10.38;;;3.03;;
26718;SDS011;14326;50.794;6.060;2022-11-14T11:48:59;8.60;;;3.30;;
26718;SDS011;14326;50.794;6.060;2022-11-14T11:51:32;9.68;;;3.30;;
26718;SDS011;14326;50.794;6.060;2022-11-14T11:54:09;10.32;;;2.97;;
26718;SDS011;14326;50.794;6.060;2022-11-14T11:56:41;11.55;;;3.10;;
26718;SDS011;14326;50.794;6.060;2022-11-14T11:59:16;10.17;;;2.93;;
26718;SDS011;14326;50.794;6.060;2022-11-14T12:04:17;8.98;;;3.05;;
26718;SDS011;14326;50.794;6.060;2022-11-14T12:06:45;9.88;;;3.25;;
26718;SDS011;14326;50.794;6.060;2022-11-14T12:09:18;10.98;;;3.20;;
26718;SDS011;14326;50.794;6.060;2022-11-14T12:11:53;8.27;;;2.90;;
26718;SDS011;14326;50.794;6.060;2022-11-14T12:14:29;10.45;;;3.13;;
26718;SDS011;14326;50.794;6.060;2022-11-14T12:17:23;10.07;;;3.40;;
26718;SDS011;14326;50.794;6.060;2022-11-14T12:23:05;9.20;;;3.17;;
26718;SDS011;14326;50.794;6.060;2022-11-14T12:25:58;9.57;;;3.30;;
26718;SDS011;14326;50.794;6.060;2022-11-14T12:28:40;11.65;;;3.20;;
26718;SDS011;14326;50.794;6.060;2022-11-14T12:31:23;8.80;;;2.65;;
26718;SDS011;14326;50.794;6.060;2022-11-14T12:33:54;8.15;;;2.70;;
26718;SDS011;14326;50.794;6.060;2022-11-14T12:36:26;8.25;;;2.90;;
26718;SDS011;14326;50.794;6.060;2022-11-14T12:38:55;8.25;;;3.03;;
26718;SDS011;14326;50.794;6.060;2022-11-14T12:41:25;9.95;;;3.08;;
26718;SDS011;14326;50.794;6.060;2022-11-14T12:49:38;12.32;;;3.53;;
26718;SDS011;14326;50.794;6.060;2022-11-14T12:52:40;10.40;;;3.15;;
26718;SDS011;14326;50.794;6.060;2022-11-14T12:55:51;11.75;;;3.22;;
26718;SDS011;14326;50.794;6.060;2022-11-14T12:58:21;9.75;;;3.10;;
26718;SDS011;14326;50.794;6.060;2022-11-14T13:01:01;11.05;;;3.30;;
26718;SDS011;14326;50.794;6.060;2022-11-14T13:03:45;10.18;;;3.00;;
26718;SDS011;14326;50.794;6.060;2022-11-14T13:06:23;8.32;;;3.20;;
26718;SDS011;14326;50.794;6.060;2022-11-14T13:09:14;7.68;;;2.95;;
26718;SDS011;14326;50.794;6.060;2022-11-14T13:11:53;11.00;;;3.40;;
26718;SDS011;14326;50.794;6.060;2022-11-14T13:14:48;10.13;;;3.42;;
26718;SDS011;14326;50.794;6.060;2022-11-14T13:17:45;9.07;;;3.25;;
26718;SDS011;14326;50.794;6.060;2022-11-14T13:20:59;11.07;;;3.45;;
26718;SDS011;14326;50.794;6.060;2022-11-14T13:23:54;10.50;;;3.30;;
26718;SDS011;14326;50.794;6.060;2022-11-14T13:26:43;7.80;;;2.67;;
26718;SDS011;14326;50.794;6.060;2022-11-14T13:41:48;12.05;;;3.70;;
26718;SDS011;14326;50.794;6.060;2022-11-14T13:47:42;13.07;;;3.97;;
26718;SDS011;14326;50.794;6.060;2022-11-14T13:50:24;12.68;;;4.22;;
26718;SDS011;14326;50.794;6.060;2022-11-14T13:52:56;13.05;;;4.25;;
26718;SDS011;14326;50.794;6.060;2022-11-14T13:55:26;13.63;;;4.70;;
26718;SDS011;14326;50.794;6.060;2022-11-14T13:58:01;12.23;;;4.07;;
26718;SDS011;14326;50.794;6.060;2022-11-14T14:00:46;12.25;;;3.92;;
26718;SDS011;14326;50.794;6.060;2022-11-14T14:03:26;12.18;;;3.90;;
26718;SDS011;14326;50.794;6.060;2022-11-14T14:06:13;10.52;;;3.72;;
26718;SDS011;14326;50.794;6.060;2022-11-14T14:08:59;11.18;;;3.53;;
26718;SDS011;14326;50.794;6.060;2022-11-14T14:11:36;12.65;;;4.03;;
26718;SDS011;14326;50.794;6.060;2022-11-14T14:14:15;9.93;;;3.55;;
26718;SDS011;14326;50.794;6.060;2022-11-14T14:16:57;13.25;;;4.25;;
26718;SDS011;14326;50.794;6.060;2022-11-14T14:19:31;12.68;;;4.13;;
26718;SDS011;14326;50.794;6.060;2022-11-14T14:22:09;12.30;;;3.80;;
26718;SDS011;14326;50.794;6.060;2022-11-14T14:24:45;12.45;;;3.97;;
26718;SDS011;14326;50.794;6.060;2022-11-14T14:27:20;10.23;;;3.47;;
26718;SDS011;14326;50.794;6.060;2022-11-14T14:29:55;13.50;;;3.70;;
26718;SDS011;14326;50.794;6.060;2022-11-14T14:32:29;12.00;;;4.25;;
26718;SDS011;14326;50.794;6.060;2022-11-14T14:34:57;11.77;;;3.65;;
26718;SDS011;14326;50.794;6.060;2022-11-14T14:37:26;9.90;;;3.35;;
26718;SDS011;14326;50.794;6.060;2022-11-14T14:40:21;12.18;;;3.70;;
26718;SDS011;14326;50.794;6.060;2022-11-14T14:42:50;12.45;;;3.63;;
26718;SDS011;14326;50.794;6.060;2022-11-14T14:45:17;12.60;;;3.35;;
26718;SDS011;14326;50.794;6.060;2022-11-14T14:47:47;12.43;;;3.60;;
26718;SDS011;14326;50.794;6.060;2022-11-14T14:50:16;12.50;;;4.20;;
26718;SDS011;14326;50.794;6.060;2022-11-14T14:52:53;12.95;;;4.45;;
26718;SDS011;14326;50.794;6.060;2022-11-14T14:55:28;9.93;;;3.15;;
26718;SDS011;14326;50.794;6.060;2022-11-14T14:58:11;13.40;;;3.80;;
26718;SDS011;14326;50.794;6.060;2022-11-14T15:00:39;12.10;;;3.92;;
26718;SDS011;14326;50.794;6.060;2022-11-14T15:03:17;10.35;;;3.45;;
26718;SDS011;14326;50.794;6.060;2022-11-14T15:05:44;12.48;;;3.85;;
26718;SDS011;14326;50.794;6.060;2022-11-14T15:08:13;11.63;;;3.78;;
26718;SDS011;14326;50.794;6.060;2022-11-14T15:10:43;12.93;;;3.58;;
26718;SDS011;14326;50.794;6.060;2022-11-14T15:13:13;12.38;;;3.50;;
26718;SDS011;14326;50.794;6.060;2022-11-14T15:15:43;11.75;;;4.13;;
26718;SDS011;14326;50.794;6.060;2022-11-14T15:18:13;11.80;;;4.13;;
26718;SDS011;14326;50.794;6.060;2022-11-14T15:20:55;14.98;;;3.95;;
26718;SDS011;14326;50.794;6.060;2022-11-14T15:23:32;12.63;;;4.18;;
26718;SDS011;14326;50.794;6.060;2022-11-14T15:26:03;13.02;;;4.22;;
26718;SDS011;14326;50.794;6.060;2022-11-14T15:28:39;12.63;;;4.07;;
26718;SDS011;14326;50.794;6.060;2022-11-14T15:31:11;14.35;;;4.40;;
26718;SDS011;14326;50.794;6.060;2022-11-14T15:33:42;10.68;;;3.75;;
26718;SDS011;14326;50.794;6.060;2022-11-14T15:36:10;13.02;;;4.68;;
26718;SDS011;14326;50.794;6.060;2022-11-14T15:38:40;15.82;;;5.00;;
26718;SDS011;14326;50.794;6.060;2022-11-14T15:41:25;13.73;;;4.70;;
26718;SDS011;14326;50.794;6.060;2022-11-14T15:43:55;14.68;;;4.30;;
26718;SDS011;14326;50.794;6.060;2022-11-14T15:49:14;14.48;;;4.95;;
26718;SDS011;14326;50.794;6.060;2022-11-14T15:51:46;15.68;;;5.07;;